Cabin John, Maryland
Current Conditions -  °F | °C
As of 4:07 PM on Tuesday 27 Jan 2015 (Local Time) from KDCA Reporting Station
Broken Clouds Broken Clouds  
Wind Chill: 25°   Ceiling: 10000
Heat Index: 36°   Visibility: 10mi
Dew Point: 21°   Wind: 20mph
Humidity: 56%   Direction: 320°NW
Pressure: 29.84"   Gusts: 26mph
Location:  38.98°N, 77.16°W
Report Text: KDCA 272107Z 32017G23KT 10SM SCT029 BKN100 02/M06 A2984 RMK AO2
Loading
Personal Weather Stations






























Interactive Weather Map New forecast layout! Learn more

10-Day Weather Forecast

Advertisements
Track Severe Weather on mobile